Terminal Aerodrome Forecast
Issued by NWS

Home | Current Version | Previous Version | Text Only | Print | Product List | Glossary On
Versions: 1 2 3 4 5 6 7 8 9 10 11 12 13 14 15 16 17 18 19 20 21 22 23 24
000
FTUS45 KGJT 082340
TAFASE
TAF
KASE 082340Z 0900/0924 00000KT P6SM VCSH OVC050
     FM090300 18004KT P6SM -SHSN BKN025 OVC050
     FM090600 VRB03KT P6SM -SN BKN015 OVC025
     FM091800 VRB03KT P6SM -SN BKN025 OVC050
     FM092000 33005KT P6SM -SHSN SCT025 OVC050=

USA.gov is the U.S. government's official web portal to all federal, state and local government web resources and services.